createdAt,value
2022-11-28T00:02:01.651Z,54.90
2022-11-28T00:04:28.368Z,54.70
2022-11-28T00:06:55.181Z,55.10
2022-11-28T00:09:22.054Z,54.90
2022-11-28T00:11:49.657Z,55.00
2022-11-28T00:14:17.073Z,54.90
2022-11-28T00:16:43.850Z,55.00
2022-11-28T00:19:10.768Z,54.70
2022-11-28T00:21:37.497Z,54.90
2022-11-28T00:24:04.395Z,54.60
2022-11-28T00:26:33.239Z,54.50
2022-11-28T00:29:00.593Z,54.60
2022-11-28T00:31:28.714Z,54.70
2022-11-28T00:33:55.916Z,54.60
2022-11-28T00:36:22.981Z,54.90
2022-11-28T00:38:49.851Z,54.70
2022-11-28T00:41:17.753Z,54.50
2022-11-28T00:43:47.809Z,54.50
2022-11-28T00:46:15.033Z,54.70
2022-11-28T00:48:41.839Z,54.40
2022-11-28T00:51:10.196Z,54.50
2022-11-28T00:53:37.650Z,54.50
2022-11-28T00:56:05.745Z,54.50
2022-11-28T00:58:33.346Z,54.50
2022-11-28T01:01:00.219Z,54.30
2022-11-28T01:03:26.984Z,54.40
2022-11-28T01:05:53.662Z,54.40
2022-11-28T01:08:20.371Z,54.10
2022-11-28T01:10:47.167Z,53.80
2022-11-28T01:13:13.805Z,54.50
2022-11-28T01:15:41.780Z,55.10
2022-11-28T01:18:08.768Z,55.10
2022-11-28T01:20:35.569Z,55.40
2022-11-28T01:23:02.349Z,55.20
2022-11-28T01:25:29.417Z,55.20
2022-11-28T01:27:56.104Z,55.40
2022-11-28T01:30:22.807Z,54.90
2022-11-28T01:32:49.498Z,55.10
2022-11-28T01:35:16.201Z,55.00
2022-11-28T01:37:42.837Z,55.00
2022-11-28T01:40:11.142Z,54.80
2022-11-28T01:42:37.818Z,54.60
2022-11-28T01:45:07.717Z,54.70
2022-11-28T01:47:34.977Z,54.60
2022-11-28T01:50:02.935Z,54.80
2022-11-28T01:52:29.714Z,54.80
2022-11-28T01:55:00.148Z,54.60
2022-11-28T01:57:27.733Z,54.70
2022-11-28T02:00:02.027Z,54.50
2022-11-28T02:02:40.312Z,54.30
2022-11-28T02:05:07.271Z,54.50
2022-11-28T02:07:34.749Z,54.30
2022-11-28T02:10:02.896Z,54.00
2022-11-28T02:12:48.352Z,54.40
2022-11-28T02:15:27.301Z,54.30
2022-11-28T02:18:03.326Z,54.10
2022-11-28T02:20:33.074Z,54.40
2022-11-28T02:23:02.705Z,54.10
2022-11-28T02:25:41.556Z,53.70
2022-11-28T02:28:08.180Z,53.90
2022-11-28T02:30:41.012Z,53.60
2022-11-28T02:33:16.752Z,53.80
2022-11-28T02:35:43.408Z,53.90
2022-11-28T02:38:13.152Z,53.70
2022-11-28T02:40:51.196Z,53.70
2022-11-28T02:43:26.783Z,53.70
2022-11-28T02:46:01.368Z,53.50
2022-11-28T02:48:54.048Z,53.40
2022-11-28T02:51:35.922Z,53.50
2022-11-28T02:54:04.472Z,53.60
2022-11-28T02:56:31.131Z,53.60
2022-11-28T02:58:57.806Z,53.50
2022-11-28T03:01:27.431Z,53.40
2022-11-28T03:03:54.147Z,53.40
2022-11-28T03:06:53.206Z,53.60
2022-11-28T03:09:28.828Z,53.60
2022-11-28T03:12:08.332Z,53.60
2022-11-28T03:14:46.724Z,53.70
2022-11-28T03:17:17.004Z,53.40
2022-11-28T03:19:50.028Z,53.40
2022-11-28T03:22:32.987Z,53.50
2022-11-28T03:25:05.534Z,53.20
2022-11-28T03:27:35.643Z,53.20
2022-11-28T03:30:06.197Z,53.40
2022-11-28T03:32:35.376Z,53.40
2022-11-28T03:35:16.735Z,53.20
2022-11-28T03:37:51.896Z,53.30
2022-11-28T03:40:22.432Z,53.20
2022-11-28T03:42:51.639Z,53.30
2022-11-28T03:45:23.722Z,52.80
2022-11-28T03:47:55.635Z,53.00
2022-11-28T03:50:26.939Z,53.70
2022-11-28T03:52:56.835Z,54.30
2022-11-28T03:55:26.168Z,54.40
2022-11-28T03:58:13.092Z,54.30
2022-11-28T04:00:46.171Z,54.10
2022-11-28T04:03:33.133Z,55.00
2022-11-28T04:05:59.862Z,54.40
2022-11-28T04:08:29.532Z,54.50
2022-11-28T04:10:58.371Z,54.30
2022-11-28T04:13:27.431Z,54.20
2022-11-28T04:16:12.953Z,54.00
2022-11-28T04:18:58.602Z,53.80
2022-11-28T04:21:37.509Z,53.90
2022-11-28T04:24:07.649Z,54.00
2022-11-28T04:26:35.721Z,53.60
2022-11-28T04:29:04.973Z,53.60
2022-11-28T04:31:32.551Z,53.40
2022-11-28T04:34:01.969Z,53.60
2022-11-28T04:36:29.101Z,53.20
2022-11-28T04:38:57.462Z,53.10
2022-11-28T04:41:27.193Z,53.40
2022-11-28T04:43:58.619Z,53.60
2022-11-28T04:46:28.741Z,53.20
2022-11-28T04:48:55.497Z,53.20
2022-11-28T04:51:36.285Z,53.20
2022-11-28T04:54:07.392Z,53.00
2022-11-28T04:56:38.426Z,52.90
2022-11-28T04:59:06.253Z,53.10
2022-11-28T05:01:34.439Z,53.00
2022-11-28T05:04:02.730Z,53.10
2022-11-28T05:06:31.023Z,53.30
2022-11-28T05:08:58.045Z,53.40
2022-11-28T05:11:25.090Z,53.10
2022-11-28T05:13:51.861Z,54.00
2022-11-28T05:16:18.866Z,53.90
2022-11-28T05:18:45.835Z,54.20
2022-11-28T05:21:12.864Z,54.00
2022-11-28T05:23:40.204Z,53.80
2022-11-28T05:26:18.273Z,53.90
2022-11-28T05:28:45.908Z,54.20
2022-11-28T05:31:13.265Z,54.00
2022-11-28T05:33:40.224Z,54.30
2022-11-28T05:36:12.636Z,54.20
2022-11-28T05:38:40.320Z,54.30
2022-11-28T05:41:07.241Z,53.80
2022-11-28T05:43:34.121Z,53.60
2022-11-28T05:46:00.967Z,53.70
2022-11-28T05:48:27.748Z,53.30
2022-11-28T05:50:54.488Z,53.50
2022-11-28T05:53:21.217Z,53.40
2022-11-28T05:55:47.905Z,53.20
2022-11-28T05:58:14.757Z,52.90
2022-11-28T06:00:41.452Z,53.10
2022-11-28T06:03:08.272Z,53.20
2022-11-28T06:05:42.799Z,53.30
2022-11-28T06:08:11.676Z,53.30
2022-11-28T06:10:38.368Z,53.40
2022-11-28T06:13:05.102Z,53.10
2022-11-28T06:15:36.228Z,53.80
2022-11-28T06:18:04.416Z,53.40
2022-11-28T06:20:31.097Z,53.20
2022-11-28T06:22:57.773Z,53.10
2022-11-28T06:25:24.608Z,53.40
2022-11-28T06:27:51.384Z,53.20
2022-11-28T06:30:18.140Z,53.30
2022-11-28T06:32:45.133Z,53.10
2022-11-28T06:35:11.941Z,53.00
2022-11-28T06:37:38.661Z,53.10
2022-11-28T06:40:05.821Z,53.40
2022-11-28T06:42:34.297Z,53.20
2022-11-28T06:45:00.967Z,53.20
2022-11-28T06:47:27.627Z,53.10
2022-11-28T06:49:54.374Z,52.80
2022-11-28T06:52:21.097Z,53.50
2022-11-28T06:54:47.841Z,53.10
2022-11-28T06:57:14.567Z,53.30
2022-11-28T06:59:41.543Z,52.70
2022-11-28T07:02:10.414Z,53.10
2022-11-28T07:04:37.083Z,53.20
2022-11-28T07:07:03.808Z,52.80
2022-11-28T07:09:30.472Z,52.70
2022-11-28T07:11:57.173Z,52.70
2022-11-28T07:14:24.103Z,53.00
2022-11-28T07:16:50.897Z,52.90
2022-11-28T07:19:22.768Z,52.90
2022-11-28T07:21:50.222Z,52.90
2022-11-28T07:24:18.099Z,53.10
2022-11-28T07:26:45.222Z,53.10
2022-11-28T07:29:16.024Z,53.20
2022-11-28T07:31:42.860Z,52.90
2022-11-28T07:34:09.892Z,52.80
2022-11-28T07:36:36.659Z,52.70
2022-11-28T07:39:04.332Z,52.70
2022-11-28T07:41:31.207Z,52.80
2022-11-28T07:43:59.247Z,52.60
2022-11-28T07:46:26.771Z,53.10
2022-11-28T07:48:53.656Z,53.00
2022-11-28T07:51:21.684Z,53.00
2022-11-28T07:53:48.496Z,52.80
2022-11-28T07:56:16.832Z,52.70
2022-11-28T07:58:44.807Z,52.70
2022-11-28T08:01:15.489Z,52.90
2022-11-28T08:03:42.399Z,52.80
2022-11-28T08:06:09.092Z,52.60
2022-11-28T08:08:35.996Z,52.90
2022-11-28T08:11:03.812Z,52.50
2022-11-28T08:13:30.597Z,52.90
2022-11-28T08:15:57.398Z,53.80
2022-11-28T08:18:24.276Z,53.00
2022-11-28T08:20:53.904Z,53.10
2022-11-28T08:23:20.563Z,53.10
2022-11-28T08:25:47.244Z,52.80
2022-11-28T08:28:14.179Z,52.70
2022-11-28T08:30:40.915Z,52.40
2022-11-28T08:33:07.581Z,51.60
2022-11-28T08:35:34.377Z,52.10
2022-11-28T08:38:02.214Z,52.30
2022-11-28T08:40:29.193Z,52.40
2022-11-28T08:42:55.931Z,51.80
2022-11-28T08:45:22.679Z,52.20
2022-11-28T08:47:49.440Z,52.00
2022-11-28T08:50:16.195Z,52.10
2022-11-28T08:52:42.925Z,51.80
2022-11-28T08:55:09.911Z,51.90
2022-11-28T08:57:36.607Z,52.10
2022-11-28T09:00:04.355Z,52.40
2022-11-28T09:02:31.015Z,52.20
2022-11-28T09:04:57.753Z,52.10
2022-11-28T09:07:24.563Z,52.20
2022-11-28T09:09:51.294Z,52.10
2022-11-28T09:12:17.963Z,52.30
2022-11-28T09:14:44.677Z,52.20
2022-11-28T09:17:11.486Z,52.10
2022-11-28T09:19:38.276Z,52.00
2022-11-28T09:22:04.960Z,52.10
2022-11-28T09:24:31.660Z,52.30
2022-11-28T09:26:58.332Z,52.50
2022-11-28T09:29:25.094Z,52.20
2022-11-28T09:31:51.873Z,52.10
2022-11-28T09:34:18.597Z,52.30
2022-11-28T09:36:45.352Z,52.50
2022-11-28T09:39:12.038Z,52.50
2022-11-28T09:41:51.392Z,52.30
2022-11-28T09:44:28.323Z,52.70
2022-11-28T09:46:56.748Z,52.40
2022-11-28T09:49:23.425Z,52.40
2022-11-28T09:51:53.534Z,52.50
2022-11-28T09:54:43.645Z,52.80
2022-11-28T09:57:21.526Z,52.40
2022-11-28T09:59:48.225Z,52.20
2022-11-28T10:02:23.955Z,52.30
2022-11-28T10:04:56.487Z,52.50
2022-11-28T10:07:23.263Z,52.60
2022-11-28T10:10:08.847Z,52.70
2022-11-28T10:12:54.048Z,52.20
2022-11-28T10:15:26.833Z,52.50
2022-11-28T10:17:59.716Z,52.70
2022-11-28T10:20:32.302Z,52.60
2022-11-28T10:23:07.797Z,52.60
2022-11-28T10:25:42.968Z,52.60
2022-11-28T10:28:18.216Z,52.60
2022-11-28T10:30:48.701Z,52.50
2022-11-28T10:33:24.010Z,52.40
2022-11-28T10:36:00.669Z,52.70
2022-11-28T10:38:28.606Z,52.80
2022-11-28T10:41:24.892Z,52.90
2022-11-28T10:43:54.057Z,53.10
2022-11-28T10:46:33.184Z,52.60
2022-11-28T10:49:06.097Z,52.40
2022-11-28T10:51:42.065Z,52.30
2022-11-28T10:54:11.836Z,52.50
2022-11-28T10:57:01.877Z,52.70
2022-11-28T10:59:36.645Z,52.80
2022-11-28T11:02:19.963Z,52.40
2022-11-28T11:04:46.850Z,52.30
2022-11-28T11:07:29.113Z,52.50
2022-11-28T11:10:00.141Z,52.80
2022-11-28T11:12:30.608Z,53.00
2022-11-28T11:14:57.289Z,52.90
2022-11-28T11:17:26.654Z,53.00
2022-11-28T11:19:55.685Z,52.80
2022-11-28T11:22:24.086Z,52.40
2022-11-28T11:25:09.394Z,52.20
2022-11-28T11:27:36.867Z,52.10
2022-11-28T11:30:16.135Z,52.00
2022-11-28T11:32:51.249Z,51.90
2022-11-28T11:35:21.370Z,52.00
2022-11-28T11:37:48.100Z,51.80
2022-11-28T11:40:22.797Z,51.70
2022-11-28T11:42:55.196Z,52.00
2022-11-28T11:45:32.293Z,51.70
2022-11-28T11:47:59.287Z,52.40
2022-11-28T11:50:27.154Z,52.00
2022-11-28T11:53:05.768Z,52.20
2022-11-28T11:55:36.348Z,52.40
2022-11-28T11:58:05.930Z,52.30
2022-11-28T12:00:40.016Z,51.90
2022-11-28T12:03:12.570Z,52.40
2022-11-28T12:06:12.817Z,51.90
2022-11-28T12:08:50.477Z,52.20
2022-11-28T12:11:23.313Z,52.20
2022-11-28T12:13:50.763Z,52.00
2022-11-28T12:16:36.255Z,52.20
2022-11-28T12:19:23.637Z,52.20
2022-11-28T12:22:07.823Z,52.40
2022-11-28T12:24:47.018Z,52.40
2022-11-28T12:27:25.057Z,52.20
2022-11-28T12:29:51.709Z,52.10
2022-11-28T12:32:18.373Z,52.10
2022-11-28T12:34:45.028Z,52.40
2022-11-28T12:37:22.270Z,52.60
2022-11-28T12:40:07.789Z,52.40
2022-11-28T12:42:37.570Z,52.50
2022-11-28T12:45:07.252Z,52.70
2022-11-28T12:47:40.853Z,52.80
2022-11-28T12:50:25.945Z,52.80
2022-11-28T12:52:58.627Z,52.60
2022-11-28T12:55:33.382Z,52.80
2022-11-28T12:58:07.928Z,52.90
2022-11-28T13:00:44.254Z,53.00
2022-11-28T13:03:18.241Z,52.80
2022-11-28T13:05:57.136Z,52.60
2022-11-28T13:08:36.563Z,52.80
2022-11-28T13:11:09.356Z,53.00
2022-11-28T13:13:39.903Z,53.10
2022-11-28T13:16:06.632Z,52.90
2022-11-28T13:18:40.470Z,52.60
2022-11-28T13:21:19.862Z,52.60
2022-11-28T13:24:03.755Z,52.90
2022-11-28T13:26:36.591Z,53.10
2022-11-28T13:29:18.566Z,53.00
2022-11-28T13:32:02.118Z,52.70
2022-11-28T13:34:30.066Z,52.90
2022-11-28T13:39:47.176Z,53.50
2022-11-28T13:45:32.185Z,52.60
2022-11-28T13:48:00.851Z,52.70
2022-11-28T13:50:30.754Z,52.70
2022-11-28T13:53:20.087Z,52.80
2022-11-28T13:55:48.458Z,52.60
2022-11-28T13:58:33.924Z,52.80
2022-11-28T14:01:00.598Z,52.60
2022-11-28T14:03:27.447Z,53.10
2022-11-28T14:05:55.353Z,52.80
2022-11-28T14:08:42.286Z,52.70
2022-11-28T14:11:24.096Z,52.60
2022-11-28T14:14:03.998Z,52.90
2022-11-28T14:16:30.944Z,53.00
2022-11-28T14:19:33.385Z,52.90
2022-11-28T14:22:00.130Z,52.70
2022-11-28T14:24:26.833Z,52.80
2022-11-28T14:26:58.369Z,53.10
2022-11-28T14:29:27.557Z,52.90
2022-11-28T14:32:28.005Z,53.00
2022-11-28T14:34:41.493Z,52.70
2022-11-28T14:37:21.284Z,53.00
2022-11-28T14:39:48.788Z,52.90
2022-11-28T14:42:30.876Z,52.90
2022-11-28T14:45:08.199Z,52.80
2022-11-28T14:47:39.491Z,52.80
2022-11-28T14:50:06.306Z,53.00
2022-11-28T14:52:41.485Z,53.10
2022-11-28T14:55:08.414Z,53.00
2022-11-28T14:57:36.122Z,52.80
2022-11-28T15:00:07.778Z,52.80
2022-11-28T15:02:37.757Z,52.70
2022-11-28T15:05:16.691Z,52.80
2022-11-28T15:07:55.695Z,52.30
2022-11-28T15:10:31.635Z,52.50
2022-11-28T15:13:01.335Z,52.20
2022-11-28T15:15:28.088Z,52.00
2022-11-28T15:17:55.135Z,52.00
2022-11-28T15:20:44.527Z,52.30
2022-11-28T15:23:23.767Z,52.00
2022-11-28T15:25:55.092Z,52.00
2022-11-28T15:28:22.256Z,52.00
2022-11-28T15:30:51.181Z,52.10
2022-11-28T15:33:18.098Z,52.40
2022-11-28T15:35:54.168Z,51.80
2022-11-28T15:38:20.957Z,51.90
2022-11-28T15:40:51.606Z,51.80
2022-11-28T15:43:18.572Z,51.90
2022-11-28T15:45:49.619Z,52.20
2022-11-28T15:48:39.418Z,52.30
2022-11-28T15:51:07.302Z,52.00
2022-11-28T15:53:39.841Z,52.00
2022-11-28T15:56:16.137Z,52.10
2022-11-28T15:58:43.638Z,52.40
2022-11-28T16:01:10.335Z,52.30
2022-11-28T16:03:41.654Z,52.00
2022-11-28T16:06:08.454Z,51.90
2022-11-28T16:08:36.630Z,52.00
2022-11-28T16:11:05.228Z,53.10
2022-11-28T16:13:32.794Z,52.30
2022-11-28T16:16:01.473Z,52.90
2022-11-28T16:18:29.168Z,53.20
2022-11-28T16:20:56.913Z,53.10
2022-11-28T16:23:32.448Z,52.80
2022-11-28T16:26:00.053Z,52.90
2022-11-28T16:28:37.177Z,52.70
2022-11-28T16:31:13.379Z,52.90
2022-11-28T16:33:44.817Z,52.80
2022-11-28T16:36:11.581Z,52.80
2022-11-28T16:38:38.763Z,53.00
2022-11-28T16:41:05.561Z,52.70
2022-11-28T16:43:39.275Z,52.80
2022-11-28T16:46:07.599Z,53.00
2022-11-28T16:48:35.361Z,52.70
2022-11-28T16:51:02.029Z,52.20
2022-11-28T16:53:45.066Z,52.70
2022-11-28T16:56:29.962Z,52.90
2022-11-28T16:59:13.672Z,52.30
2022-11-28T17:01:44.696Z,52.50
2022-11-28T17:04:22.261Z,52.70
2022-11-28T17:06:48.957Z,52.70
2022-11-28T17:09:15.713Z,52.60
2022-11-28T17:11:43.928Z,52.80
2022-11-28T17:14:13.879Z,52.50
2022-11-28T17:16:41.541Z,53.30
2022-11-28T17:19:08.578Z,52.60
2022-11-28T17:21:40.462Z,52.70
2022-11-28T17:24:13.828Z,52.90
2022-11-28T17:26:40.606Z,52.60
2022-11-28T17:29:10.007Z,52.60
2022-11-28T17:31:37.348Z,52.70
2022-11-28T17:34:04.016Z,52.40
2022-11-28T17:36:30.701Z,52.80
2022-11-28T17:39:02.267Z,52.40
2022-11-28T17:41:31.613Z,52.50
2022-11-28T17:43:58.273Z,52.70
2022-11-28T17:46:24.904Z,52.30
2022-11-28T17:48:51.555Z,52.60
2022-11-28T17:51:18.237Z,52.80
2022-11-28T17:53:44.898Z,52.50
2022-11-28T17:56:12.165Z,52.70
2022-11-28T17:58:38.956Z,52.70
2022-11-28T18:01:10.007Z,52.40
2022-11-28T18:03:36.789Z,52.60
2022-11-28T18:06:05.310Z,52.60
2022-11-28T18:08:32.052Z,52.60
2022-11-28T18:11:09.748Z,52.40
2022-11-28T18:13:36.435Z,52.30
2022-11-28T18:16:03.265Z,52.20
2022-11-28T18:18:30.627Z,52.10
2022-11-28T18:20:57.421Z,52.10
2022-11-28T18:23:24.145Z,52.10
2022-11-28T18:25:51.477Z,52.10
2022-11-28T18:28:19.206Z,52.10
2022-11-28T18:30:46.401Z,52.20
2022-11-28T18:33:13.904Z,52.20
2022-11-28T18:35:40.960Z,52.30
2022-11-28T18:38:08.564Z,52.20
2022-11-28T18:40:36.446Z,52.00
2022-11-28T18:43:03.485Z,52.20
2022-11-28T18:45:30.382Z,52.20
2022-11-28T18:48:00.166Z,52.10
2022-11-28T18:50:27.328Z,52.30
2022-11-28T18:52:54.446Z,52.10
2022-11-28T18:55:21.161Z,52.20
2022-11-28T18:57:47.891Z,52.20
2022-11-28T19:00:14.867Z,52.40
2022-11-28T19:02:41.578Z,52.20
2022-11-28T19:05:08.406Z,52.30
2022-11-28T19:07:35.129Z,52.40
2022-11-28T19:10:01.832Z,52.40
2022-11-28T19:12:28.556Z,52.60
2022-11-28T19:15:01.588Z,52.20
2022-11-28T19:17:28.985Z,52.40
2022-11-28T19:19:55.637Z,52.30
2022-11-28T19:22:22.928Z,52.30
2022-11-28T19:24:49.625Z,52.20
2022-11-28T19:27:16.434Z,52.40
2022-11-28T19:29:44.559Z,52.30
2022-11-28T19:32:12.624Z,52.60
2022-11-28T19:34:39.383Z,52.10
2022-11-28T19:37:06.080Z,54.60
2022-11-28T19:39:32.763Z,56.30
2022-11-28T19:41:59.437Z,56.20
2022-11-28T19:44:29.015Z,55.40
2022-11-28T19:46:56.335Z,55.10
2022-11-28T19:49:23.638Z,54.50
2022-11-28T19:51:50.751Z,54.60
2022-11-28T19:54:21.102Z,54.40
2022-11-28T19:56:48.187Z,54.60
2022-11-28T19:59:14.979Z,54.60
2022-11-28T20:01:41.801Z,54.40
2022-11-28T20:04:08.904Z,54.40
2022-11-28T20:06:35.748Z,54.50
2022-11-28T20:09:04.294Z,54.70
2022-11-28T20:11:32.454Z,54.70
2022-11-28T20:14:03.618Z,54.70
2022-11-28T20:16:31.527Z,54.50
2022-11-28T20:19:00.407Z,54.50
2022-11-28T20:21:27.791Z,54.70
2022-11-28T20:23:55.438Z,54.90
2022-11-28T20:26:23.808Z,54.70
2022-11-28T20:28:50.473Z,54.80
2022-11-28T20:31:18.455Z,54.70
2022-11-28T20:33:45.378Z,54.90
2022-11-28T20:36:13.715Z,55.00
2022-11-28T20:38:40.441Z,55.10
2022-11-28T20:41:08.544Z,55.00
2022-11-28T20:43:36.314Z,55.00
2022-11-28T20:46:10.373Z,55.00
2022-11-28T20:48:37.763Z,55.10
2022-11-28T20:51:08.009Z,54.90
2022-11-28T20:53:35.158Z,55.00
2022-11-28T20:56:02.960Z,55.00
2022-11-28T20:58:29.968Z,55.00
2022-11-28T21:00:56.931Z,55.10
2022-11-28T21:03:24.630Z,55.20
2022-11-28T21:05:54.231Z,55.30
2022-11-28T21:08:24.594Z,55.20
2022-11-28T21:10:51.388Z,55.10
2022-11-28T21:13:18.210Z,55.20
2022-11-28T21:15:45.725Z,55.10
2022-11-28T21:18:13.286Z,54.90
2022-11-28T21:20:43.013Z,54.90
2022-11-28T21:23:21.860Z,55.00
2022-11-28T21:25:48.546Z,54.50
2022-11-28T21:28:15.228Z,54.50
2022-11-28T21:30:46.190Z,54.60
2022-11-28T21:33:13.191Z,54.80
2022-11-28T21:35:40.016Z,54.80
2022-11-28T21:38:07.383Z,55.20
2022-11-28T21:40:34.103Z,55.30
2022-11-28T21:43:00.860Z,55.20
2022-11-28T21:45:27.724Z,55.40
2022-11-28T21:47:54.529Z,55.40
2022-11-28T21:50:21.205Z,55.40
2022-11-28T21:52:47.951Z,55.40
2022-11-28T21:55:14.827Z,55.40
2022-11-28T21:57:42.335Z,55.50
2022-11-28T22:00:20.784Z,55.40
2022-11-28T22:03:02.555Z,55.50
2022-11-28T22:05:31.221Z,55.50
2022-11-28T22:07:57.998Z,55.50
2022-11-28T22:10:24.784Z,55.50
2022-11-28T22:12:51.443Z,55.50
2022-11-28T22:15:18.214Z,55.60
2022-11-28T22:17:44.929Z,55.50
2022-11-28T22:20:12.181Z,55.40
2022-11-28T22:22:38.867Z,55.40
2022-11-28T22:25:05.842Z,55.50
2022-11-28T22:27:32.797Z,55.50
2022-11-28T22:29:59.596Z,55.00
2022-11-28T22:32:26.310Z,55.00
2022-11-28T22:34:53.040Z,54.80
2022-11-28T22:37:19.810Z,54.70
2022-11-28T22:39:46.540Z,55.10
2022-11-28T22:42:13.248Z,54.90
2022-11-28T22:44:40.002Z,54.40
2022-11-28T22:47:06.717Z,54.40
2022-11-28T22:49:33.465Z,54.40
2022-11-28T22:52:05.467Z,54.40
2022-11-28T22:54:32.127Z,54.20
2022-11-28T22:56:59.317Z,54.20
2022-11-28T22:59:26.027Z,54.00
2022-11-28T23:01:52.808Z,54.00
2022-11-28T23:04:19.618Z,53.90
2022-11-28T23:06:46.281Z,53.80
2022-11-28T23:09:13.674Z,53.80
2022-11-28T23:11:40.453Z,54.20
2022-11-28T23:14:07.308Z,53.90
2022-11-28T23:16:35.321Z,54.20
2022-11-28T23:19:06.467Z,54.00
2022-11-28T23:21:35.165Z,54.10
2022-11-28T23:24:02.169Z,53.90
2022-11-28T23:26:30.308Z,54.00
2022-11-28T23:28:58.770Z,54.00
2022-11-28T23:31:26.993Z,54.00
2022-11-28T23:33:53.993Z,53.80
2022-11-28T23:36:22.023Z,53.90
2022-11-28T23:38:50.327Z,54.00
2022-11-28T23:41:17.236Z,53.70
2022-11-28T23:43:48.132Z,54.00
2022-11-28T23:46:15.315Z,53.80
2022-11-28T23:48:43.737Z,53.70
2022-11-28T23:51:12.801Z,53.60
2022-11-28T23:53:40.276Z,53.70
2022-11-28T23:56:11.503Z,53.50
2022-11-28T23:58:38.851Z,53.80
